createdAt,value
2023-02-04T00:00:02.951Z,13.39
2023-02-04T00:01:07.443Z,13.41
2023-02-04T00:02:08.940Z,13.42
2023-02-04T00:03:10.582Z,13.43
2023-02-04T00:04:15.063Z,13.43
2023-02-04T00:05:16.824Z,13.43
2023-02-04T00:06:18.349Z,13.44
2023-02-04T00:07:19.841Z,13.40
2023-02-04T00:08:21.402Z,13.39
2023-02-04T00:09:22.890Z,13.39
2023-02-04T00:10:24.392Z,13.38
2023-02-04T00:11:25.939Z,13.38
2023-02-04T00:12:27.406Z,13.39
2023-02-04T00:13:28.902Z,13.40
2023-02-04T00:14:30.390Z,13.40
2023-02-04T00:15:31.880Z,13.41
2023-02-04T00:16:33.362Z,13.39
2023-02-04T00:17:35.473Z,13.39
2023-02-04T00:18:37.057Z,13.39
2023-02-04T00:19:39.319Z,13.39
2023-02-04T00:20:40.761Z,13.41
2023-02-04T00:21:42.239Z,13.40
2023-02-04T00:22:43.778Z,13.40
2023-02-04T00:23:45.309Z,13.37
2023-02-04T00:24:49.863Z,13.36
2023-02-04T00:25:51.341Z,13.38
2023-02-04T00:26:52.861Z,13.39
2023-02-04T00:27:54.382Z,13.36
2023-02-04T00:28:56.321Z,13.35
2023-02-04T00:29:58.187Z,13.34
2023-02-04T00:30:59.831Z,13.34
2023-02-04T00:32:01.479Z,13.34
2023-02-04T00:33:03.003Z,13.34
2023-02-04T00:34:04.652Z,13.32
2023-02-04T00:35:06.286Z,13.32
2023-02-04T00:36:07.871Z,13.31
2023-02-04T00:37:09.412Z,13.32
2023-02-04T00:38:12.084Z,13.31
2023-02-04T00:39:13.626Z,13.32
2023-02-04T00:40:15.158Z,13.33
2023-02-04T00:41:16.714Z,13.33
2023-02-04T00:42:18.195Z,13.34
2023-02-04T00:43:19.687Z,13.33
2023-02-04T00:44:21.267Z,13.32
2023-02-04T00:45:22.734Z,13.34
2023-02-04T00:46:24.357Z,13.35
2023-02-04T00:47:25.953Z,13.35
2023-02-04T00:48:27.446Z,13.35
2023-02-04T00:49:28.953Z,13.35
2023-02-04T00:50:31.456Z,13.36
2023-02-04T00:51:33.222Z,13.25
2023-02-04T00:52:34.771Z,13.34
2023-02-04T00:53:37.283Z,13.33
2023-02-04T00:54:38.808Z,13.32
2023-02-04T00:55:40.304Z,13.31
2023-02-04T00:56:41.915Z,13.29
2023-02-04T00:57:43.837Z,13.31
2023-02-04T00:58:45.394Z,13.29
2023-02-04T00:59:46.884Z,13.28
2023-02-04T01:00:48.486Z,13.28
2023-02-04T01:01:51.633Z,13.29
2023-02-04T01:02:53.135Z,13.29
2023-02-04T01:03:54.833Z,13.27
2023-02-04T01:04:57.746Z,13.25
2023-02-04T01:05:59.248Z,13.25
2023-02-04T01:07:00.740Z,13.26
2023-02-04T01:08:02.235Z,13.27
2023-02-04T01:09:03.804Z,13.27
2023-02-04T01:10:05.500Z,13.28
2023-02-04T01:11:06.981Z,13.28
2023-02-04T01:12:08.530Z,13.28
2023-02-04T01:13:10.007Z,13.28
2023-02-04T01:14:11.498Z,13.29
2023-02-04T01:15:14.113Z,13.29
2023-02-04T01:16:15.637Z,13.29
2023-02-04T01:17:19.886Z,13.30
2023-02-04T01:18:21.452Z,13.30
2023-02-04T01:19:22.946Z,13.29
2023-02-04T01:20:24.416Z,13.27
2023-02-04T01:21:26.000Z,13.28
2023-02-04T01:22:27.505Z,13.27
2023-02-04T01:23:29.040Z,13.27
2023-02-04T01:24:30.530Z,13.27
2023-02-04T01:25:50.767Z,13.24
2023-02-04T01:26:52.313Z,13.25
2023-02-04T01:27:53.936Z,13.24
2023-02-04T01:28:55.438Z,13.26
2023-02-04T01:29:59.032Z,13.24
2023-02-04T01:31:01.110Z,13.26
2023-02-04T01:32:03.171Z,13.28
2023-02-04T01:33:04.910Z,13.29
2023-02-04T01:34:07.458Z,13.28
2023-02-04T01:35:08.957Z,13.29
2023-02-04T01:36:10.414Z,13.30
2023-02-04T01:37:12.121Z,13.29
2023-02-04T01:38:13.610Z,13.30
2023-02-04T01:39:15.755Z,13.29
2023-02-04T01:40:17.306Z,13.29
2023-02-04T01:41:18.970Z,13.30
2023-02-04T01:42:20.528Z,13.29
2023-02-04T01:43:23.144Z,13.29
2023-02-04T01:44:24.667Z,13.29
2023-02-04T01:45:26.245Z,13.29
2023-02-04T01:46:27.746Z,13.28
2023-02-04T01:47:29.335Z,13.26
2023-02-04T01:48:30.863Z,13.26
2023-02-04T01:49:32.335Z,13.28
2023-02-04T01:50:34.017Z,13.27
2023-02-04T01:51:35.523Z,13.27
2023-02-04T01:52:38.238Z,13.27
2023-02-04T01:53:39.793Z,13.28
2023-02-04T01:54:41.289Z,13.27
2023-02-04T01:55:42.747Z,13.26
2023-02-04T01:56:45.180Z,13.27
2023-02-04T01:57:46.803Z,13.24
2023-02-04T01:58:48.269Z,13.24
2023-02-04T01:59:49.857Z,13.24
2023-02-04T02:00:51.505Z,13.23
2023-02-04T02:01:53.080Z,13.20
2023-02-04T02:02:54.768Z,13.20
2023-02-04T02:03:56.367Z,13.20
2023-02-04T02:04:57.891Z,13.21
2023-02-04T02:06:00.489Z,13.23
2023-02-04T02:07:04.012Z,13.23
2023-02-04T02:08:05.638Z,13.24
2023-02-04T02:09:07.116Z,13.24
2023-02-04T02:10:09.147Z,13.25
2023-02-04T02:11:11.089Z,13.24
2023-02-04T02:12:12.655Z,13.24
2023-02-04T02:13:15.460Z,13.23
2023-02-04T02:14:16.940Z,13.24
2023-02-04T02:15:18.615Z,13.24
2023-02-04T02:16:20.158Z,13.24
2023-02-04T02:17:21.630Z,13.23
2023-02-04T02:18:25.236Z,13.23
2023-02-04T02:19:27.807Z,13.22
2023-02-04T02:20:29.852Z,13.23
2023-02-04T02:21:35.438Z,13.20
2023-02-04T02:22:39.786Z,13.18
2023-02-04T02:23:46.852Z,13.17
2023-02-04T02:24:48.374Z,13.18
2023-02-04T02:25:49.871Z,13.18
2023-02-04T02:26:51.781Z,13.16
2023-02-04T02:27:53.540Z,13.18
2023-02-04T02:28:55.044Z,13.17
2023-02-04T02:29:56.565Z,13.14
2023-02-04T02:30:58.198Z,13.11
2023-02-04T02:31:59.838Z,13.10
2023-02-04T02:33:01.376Z,13.10
2023-02-04T02:34:02.885Z,13.09
2023-02-04T02:35:04.761Z,13.09
2023-02-04T02:36:06.626Z,13.08
2023-02-04T02:37:10.830Z,13.09
2023-02-04T02:38:12.318Z,13.09
2023-02-04T02:39:15.505Z,13.08
2023-02-04T02:40:17.089Z,13.08
2023-02-04T02:41:18.614Z,13.08
2023-02-04T02:42:20.129Z,13.09
2023-02-04T02:43:23.323Z,13.11
2023-02-04T02:44:25.159Z,13.12
2023-02-04T02:45:27.371Z,13.11
2023-02-04T02:46:28.904Z,13.11
2023-02-04T02:47:30.389Z,13.11
2023-02-04T02:48:32.219Z,13.12
2023-02-04T02:49:34.993Z,13.11
2023-02-04T02:50:36.497Z,13.11
2023-02-04T02:51:37.962Z,13.10
2023-02-04T02:52:39.492Z,13.11
2023-02-04T02:53:40.999Z,13.09
2023-02-04T02:54:42.800Z,13.08
2023-02-04T02:55:46.969Z,13.09
2023-02-04T02:56:52.404Z,13.09
2023-02-04T02:57:56.243Z,13.07
2023-02-04T02:58:58.509Z,13.08
2023-02-04T02:59:59.973Z,13.06
2023-02-04T03:01:01.588Z,13.03
2023-02-04T03:02:03.518Z,13.00
2023-02-04T03:03:08.890Z,13.00
2023-02-04T03:04:10.812Z,13.01
2023-02-04T03:05:12.341Z,12.99
2023-02-04T03:06:15.349Z,12.96
2023-02-04T03:07:18.259Z,12.99
2023-02-04T03:08:19.747Z,12.99
2023-02-04T03:09:21.319Z,13.00
2023-02-04T03:10:22.905Z,13.01
2023-02-04T03:11:26.309Z,13.02
2023-02-04T03:12:27.947Z,13.01
2023-02-04T03:13:29.864Z,13.02
2023-02-04T03:14:31.458Z,13.03
2023-02-04T03:15:32.970Z,13.03
2023-02-04T03:16:34.480Z,13.01
2023-02-04T03:17:35.951Z,12.99
2023-02-04T03:18:37.504Z,12.97
2023-02-04T03:19:39.046Z,12.98
2023-02-04T03:20:40.950Z,12.97
2023-02-04T03:21:42.417Z,12.96
2023-02-04T03:22:43.948Z,12.92
2023-02-04T03:23:45.590Z,12.91
2023-02-04T03:24:48.113Z,12.92
2023-02-04T03:25:49.582Z,12.92
2023-02-04T03:26:52.122Z,12.89
2023-02-04T03:27:57.078Z,12.89
2023-02-04T03:28:58.856Z,12.87
2023-02-04T03:30:00.446Z,12.85
2023-02-04T03:31:02.244Z,12.85
2023-02-04T03:32:06.497Z,12.82
2023-02-04T03:33:08.004Z,12.80
2023-02-04T03:34:09.512Z,12.81
2023-02-04T03:35:10.969Z,12.82
2023-02-04T03:36:12.460Z,12.79
2023-02-04T03:37:13.946Z,12.81
2023-02-04T03:38:15.448Z,12.81
2023-02-04T03:39:17.603Z,12.79
2023-02-04T03:40:19.215Z,12.79
2023-02-04T03:41:20.713Z,12.78
2023-02-04T03:42:22.190Z,12.78
2023-02-04T03:43:23.638Z,12.78
2023-02-04T03:44:26.964Z,12.77
2023-02-04T03:45:32.363Z,12.79
2023-02-04T03:46:36.429Z,12.74
2023-02-04T03:47:37.987Z,12.76
2023-02-04T03:48:39.428Z,12.78
2023-02-04T03:49:41.085Z,12.78
2023-02-04T03:50:42.564Z,12.76
2023-02-04T03:51:44.092Z,12.76
2023-02-04T03:52:45.602Z,12.72
2023-02-04T03:53:47.117Z,12.73
2023-02-04T03:54:48.568Z,12.74
2023-02-04T03:55:50.041Z,12.73
2023-02-04T03:56:51.625Z,12.73
2023-02-04T03:57:53.529Z,12.64
2023-02-04T03:58:55.050Z,12.58
2023-02-04T03:59:56.502Z,12.58
2023-02-04T04:00:58.039Z,12.61
2023-02-04T04:01:59.659Z,12.57
2023-02-04T04:03:01.255Z,12.58
2023-02-04T04:04:02.796Z,12.58
2023-02-04T04:05:04.424Z,12.59
2023-02-04T04:06:08.837Z,12.60
2023-02-04T04:07:10.500Z,12.60
2023-02-04T04:08:11.958Z,12.62
2023-02-04T04:09:13.433Z,12.63
2023-02-04T04:10:15.055Z,12.63
2023-02-04T04:11:16.523Z,12.61
2023-02-04T04:12:17.978Z,12.64
2023-02-04T04:13:19.482Z,12.61
2023-02-04T04:14:21.237Z,12.60
2023-02-04T04:15:22.779Z,12.59
2023-02-04T04:16:24.320Z,12.60
2023-02-04T04:17:25.778Z,12.58
2023-02-04T04:18:27.332Z,12.58
2023-02-04T04:19:28.853Z,12.59
2023-02-04T04:20:30.961Z,12.58
2023-02-04T04:21:32.646Z,12.54
2023-02-04T04:22:34.179Z,12.54
2023-02-04T04:23:35.637Z,12.52
2023-02-04T04:24:37.097Z,12.52
2023-02-04T04:25:38.642Z,12.51
2023-02-04T04:26:40.509Z,12.52
2023-02-04T04:27:42.033Z,12.51
2023-02-04T04:28:43.534Z,12.52
2023-02-04T04:29:45.039Z,12.51
2023-02-04T04:30:46.553Z,12.51
2023-02-04T04:31:48.114Z,12.52
2023-02-04T04:32:49.605Z,12.50
2023-02-04T04:33:51.137Z,12.51
2023-02-04T04:34:52.662Z,12.50
2023-02-04T04:35:54.174Z,12.52
2023-02-04T04:36:55.633Z,12.51
2023-02-04T04:37:57.098Z,12.53
2023-02-04T04:38:59.724Z,12.53
2023-02-04T04:40:01.780Z,12.55
2023-02-04T04:41:03.297Z,12.54
2023-02-04T04:42:04.821Z,12.52
2023-02-04T04:43:06.317Z,12.52
2023-02-04T04:44:08.018Z,12.51
2023-02-04T04:45:09.877Z,12.52
2023-02-04T04:46:11.431Z,12.53
2023-02-04T04:47:12.877Z,12.52
2023-02-04T04:48:14.377Z,12.49
2023-02-04T04:49:16.440Z,12.48
2023-02-04T04:50:17.971Z,12.49
2023-02-04T04:51:19.452Z,12.50
2023-02-04T04:52:20.905Z,12.52
2023-02-04T04:53:22.387Z,12.51
2023-02-04T04:54:23.890Z,12.42
2023-02-04T04:55:25.362Z,12.51
2023-02-04T04:56:26.809Z,12.49
2023-02-04T04:57:28.294Z,12.48
2023-02-04T04:58:29.807Z,12.48
2023-02-04T04:59:31.262Z,12.47
2023-02-04T05:00:33.141Z,12.47
2023-02-04T05:01:34.773Z,12.47
2023-02-04T05:02:36.265Z,12.47
2023-02-04T05:03:37.752Z,12.47
2023-02-04T05:04:39.276Z,12.47
2023-02-04T05:05:41.370Z,12.47
2023-02-04T05:06:42.863Z,12.48
2023-02-04T05:07:44.331Z,12.48
2023-02-04T05:08:45.819Z,12.48
2023-02-04T05:09:47.294Z,12.48
2023-02-04T05:10:48.798Z,12.48
2023-02-04T05:11:50.309Z,12.45
2023-02-04T05:12:51.788Z,12.45
2023-02-04T05:13:53.364Z,12.44
2023-02-04T05:14:54.853Z,12.45
2023-02-04T05:15:56.374Z,12.41
2023-02-04T05:16:57.911Z,12.42
2023-02-04T05:17:59.386Z,12.41
2023-02-04T05:19:00.911Z,12.42
2023-02-04T05:20:02.435Z,12.42
2023-02-04T05:21:04.127Z,12.42
2023-02-04T05:22:05.585Z,12.42
2023-02-04T05:23:07.101Z,12.43
2023-02-04T05:24:08.631Z,12.43
2023-02-04T05:25:10.782Z,12.43
2023-02-04T05:26:17.139Z,12.43
2023-02-04T05:27:23.597Z,12.43
2023-02-04T05:28:25.112Z,12.43
2023-02-04T05:29:26.618Z,12.44
2023-02-04T05:30:28.235Z,12.43
2023-02-04T05:31:29.853Z,12.42
2023-02-04T05:32:31.348Z,12.43
2023-02-04T05:33:32.869Z,12.44
2023-02-04T05:34:34.369Z,12.42
2023-02-04T05:35:35.830Z,12.41
2023-02-04T05:36:37.305Z,12.42
2023-02-04T05:37:38.765Z,12.39
2023-02-04T05:38:40.262Z,12.38
2023-02-04T05:39:41.790Z,12.39
2023-02-04T05:40:43.279Z,12.37
2023-02-04T05:41:44.800Z,12.38
2023-02-04T05:42:46.265Z,12.38
2023-02-04T05:43:47.719Z,12.37
2023-02-04T05:44:49.313Z,12.36
2023-02-04T05:45:50.840Z,12.38
2023-02-04T05:46:52.339Z,12.36
2023-02-04T05:47:53.812Z,12.36
2023-02-04T05:48:55.282Z,12.36
2023-02-04T05:49:56.865Z,12.38
2023-02-04T05:50:58.383Z,12.37
2023-02-04T05:51:59.883Z,12.37
2023-02-04T05:53:01.376Z,12.38
2023-02-04T05:54:02.835Z,12.36
2023-02-04T05:55:04.483Z,12.35
2023-02-04T05:56:06.022Z,12.34
2023-02-04T05:57:07.501Z,12.31
2023-02-04T05:58:08.954Z,12.27
2023-02-04T05:59:10.407Z,12.24
2023-02-04T06:00:12.102Z,12.25
2023-02-04T06:01:13.629Z,12.24
2023-02-04T06:02:17.003Z,12.24
2023-02-04T06:03:19.607Z,12.24
2023-02-04T06:04:21.155Z,12.24
2023-02-04T06:05:23.196Z,12.22
2023-02-04T06:06:24.756Z,12.21
2023-02-04T06:07:26.229Z,12.21
2023-02-04T06:08:27.914Z,12.19
2023-02-04T06:09:29.359Z,12.18
2023-02-04T06:10:31.219Z,12.17
2023-02-04T06:11:32.844Z,12.17
2023-02-04T06:12:34.394Z,12.16
2023-02-04T06:13:35.875Z,12.15
2023-02-04T06:14:37.371Z,12.17
2023-02-04T06:15:38.878Z,12.14
2023-02-04T06:16:40.431Z,12.14
2023-02-04T06:17:41.914Z,12.14
2023-02-04T06:18:43.442Z,12.15
2023-02-04T06:19:44.948Z,12.14
2023-02-04T06:20:46.468Z,12.16
2023-02-04T06:21:48.094Z,12.14
2023-02-04T06:22:51.733Z,12.13
2023-02-04T06:23:53.266Z,12.13
2023-02-04T06:24:54.750Z,12.13
2023-02-04T06:25:56.269Z,12.12
2023-02-04T06:26:57.742Z,12.13
2023-02-04T06:27:59.230Z,12.12
2023-02-04T06:29:00.718Z,12.14
2023-02-04T06:30:02.222Z,12.12
2023-02-04T06:31:03.790Z,12.12
2023-02-04T06:32:05.352Z,12.13
2023-02-04T06:33:06.807Z,12.13
2023-02-04T06:34:08.304Z,12.14
2023-02-04T06:35:09.985Z,12.13
2023-02-04T06:36:11.521Z,12.12
2023-02-04T06:37:13.753Z,12.13
2023-02-04T06:38:15.216Z,12.13
2023-02-04T06:39:16.678Z,12.10
2023-02-04T06:40:18.322Z,12.07
2023-02-04T06:41:20.003Z,12.08
2023-02-04T06:42:21.474Z,12.08
2023-02-04T06:43:25.423Z,12.08
2023-02-04T06:44:26.942Z,12.08
2023-02-04T06:45:28.549Z,12.08
2023-02-04T06:46:30.170Z,12.07
2023-02-04T06:47:31.818Z,12.09
2023-02-04T06:48:33.281Z,12.07
2023-02-04T06:49:34.739Z,12.08
2023-02-04T06:50:36.305Z,12.07
2023-02-04T06:51:37.770Z,12.07
2023-02-04T06:52:39.283Z,12.08
2023-02-04T06:53:44.009Z,12.07
2023-02-04T06:54:45.479Z,12.07
2023-02-04T06:55:47.012Z,12.07
2023-02-04T06:56:48.626Z,12.07
2023-02-04T06:57:50.101Z,12.06
2023-02-04T06:58:51.580Z,12.06
2023-02-04T06:59:53.045Z,12.05
2023-02-04T07:00:54.533Z,12.05
2023-02-04T07:01:55.993Z,12.04
2023-02-04T07:02:58.662Z,12.04
2023-02-04T07:04:00.165Z,12.05
2023-02-04T07:05:01.771Z,12.04
2023-02-04T07:06:03.258Z,12.03
2023-02-04T07:07:04.734Z,12.03
2023-02-04T07:08:06.247Z,12.03
2023-02-04T07:09:07.726Z,12.04
2023-02-04T07:10:09.393Z,12.03
2023-02-04T07:11:10.952Z,12.05
2023-02-04T07:12:12.409Z,12.03
2023-02-04T07:13:13.884Z,12.04
2023-02-04T07:14:15.353Z,12.04
2023-02-04T07:15:16.937Z,12.05
2023-02-04T07:16:18.461Z,12.04
2023-02-04T07:17:19.944Z,11.99
2023-02-04T07:18:21.388Z,12.00
2023-02-04T07:19:22.867Z,12.02
2023-02-04T07:20:24.318Z,12.03
2023-02-04T07:21:27.024Z,12.03
2023-02-04T07:22:28.513Z,12.04
2023-02-04T07:23:30.026Z,12.01
2023-02-04T07:24:31.517Z,12.01
2023-02-04T07:25:32.983Z,12.01
2023-02-04T07:26:34.504Z,12.01
2023-02-04T07:27:36.023Z,12.00
2023-02-04T07:28:37.561Z,12.00
2023-02-04T07:29:39.041Z,11.99
2023-02-04T07:30:40.555Z,12.01
2023-02-04T07:31:42.324Z,12.01
2023-02-04T07:32:43.982Z,12.01
2023-02-04T07:33:45.499Z,12.01
2023-02-04T07:34:48.102Z,12.02
2023-02-04T07:35:49.551Z,12.03
2023-02-04T07:36:51.166Z,12.04
2023-02-04T07:37:52.686Z,12.04
2023-02-04T07:38:54.160Z,12.04
2023-02-04T07:39:55.650Z,12.05
2023-02-04T07:40:57.099Z,12.05
2023-02-04T07:41:58.779Z,12.05
2023-02-04T07:43:07.633Z,12.05
2023-02-04T07:44:09.434Z,12.05
2023-02-04T07:45:10.917Z,12.05
2023-02-04T07:46:12.389Z,12.06
2023-02-04T07:47:14.073Z,12.06
2023-02-04T07:48:15.573Z,12.06
2023-02-04T07:49:17.025Z,12.05
2023-02-04T07:50:18.600Z,12.03
2023-02-04T07:51:20.091Z,12.04
2023-02-04T07:52:21.596Z,12.04
2023-02-04T07:53:23.165Z,12.03
2023-02-04T07:54:24.628Z,12.00
2023-02-04T07:55:26.112Z,12.01
2023-02-04T07:56:27.609Z,12.03
2023-02-04T07:57:30.044Z,12.05
2023-02-04T07:58:31.542Z,12.06
2023-02-04T07:59:32.977Z,12.06
2023-02-04T08:00:34.674Z,12.06
2023-02-04T08:01:36.260Z,12.07
2023-02-04T08:02:37.736Z,12.07
2023-02-04T08:03:41.504Z,12.08
2023-02-04T08:04:43.325Z,12.10
2023-02-04T08:05:44.815Z,12.08
2023-02-04T08:06:46.318Z,12.08
2023-02-04T08:07:47.800Z,12.08
2023-02-04T08:08:49.309Z,12.07
2023-02-04T08:09:50.797Z,12.08
2023-02-04T08:10:52.382Z,12.09
2023-02-04T08:11:54.014Z,12.10
2023-02-04T08:12:55.468Z,12.11
2023-02-04T08:13:57.111Z,12.13
2023-02-04T08:14:58.679Z,12.13
2023-02-04T08:16:00.209Z,12.15
2023-02-04T08:17:01.747Z,12.15
2023-02-04T08:18:03.380Z,12.16
2023-02-04T08:19:04.905Z,12.17
2023-02-04T08:20:06.581Z,12.18
2023-02-04T08:21:08.109Z,12.19
2023-02-04T08:22:10.668Z,12.20
2023-02-04T08:23:12.205Z,12.20
2023-02-04T08:24:13.946Z,12.21
2023-02-04T08:25:15.428Z,12.22
2023-02-04T08:26:16.880Z,12.23
2023-02-04T08:27:18.376Z,12.25
2023-02-04T08:28:19.945Z,12.26
2023-02-04T08:29:21.468Z,12.26
2023-02-04T08:30:22.982Z,12.27
2023-02-04T08:31:24.587Z,12.29
2023-02-04T08:32:27.502Z,12.30
2023-02-04T08:33:29.032Z,12.31
2023-02-04T08:34:30.680Z,12.31
2023-02-04T08:35:32.143Z,12.33
2023-02-04T08:36:33.713Z,12.34
2023-02-04T08:37:35.194Z,12.35
2023-02-04T08:38:36.718Z,12.36
2023-02-04T08:39:39.492Z,12.37
2023-02-04T08:40:40.949Z,12.38
2023-02-04T08:41:42.722Z,12.39
2023-02-04T08:42:44.216Z,12.41
2023-02-04T08:43:45.676Z,12.43
2023-02-04T08:44:47.200Z,12.44
2023-02-04T08:45:48.687Z,12.46
2023-02-04T08:46:50.254Z,12.46
2023-02-04T08:47:51.750Z,12.49
2023-02-04T08:48:53.218Z,12.50
2023-02-04T08:49:54.662Z,12.52
2023-02-04T08:50:56.112Z,12.54
2023-02-04T08:51:57.663Z,12.57
2023-02-04T08:52:59.129Z,12.59
2023-02-04T08:54:00.645Z,12.61
2023-02-04T08:55:02.186Z,12.63
2023-02-04T08:56:03.721Z,12.65
2023-02-04T08:57:05.252Z,12.65
2023-02-04T08:58:06.718Z,12.68
2023-02-04T08:59:08.263Z,12.69
2023-02-04T09:00:10.591Z,12.72
2023-02-04T09:01:12.057Z,12.74
2023-02-04T09:02:13.739Z,12.75
2023-02-04T09:03:15.241Z,12.76
2023-02-04T09:04:16.716Z,12.80
2023-02-04T09:05:18.170Z,12.81
2023-02-04T09:06:19.667Z,12.82
2023-02-04T09:07:21.785Z,12.83
2023-02-04T09:08:23.317Z,12.84
2023-02-04T09:09:26.307Z,12.85
2023-02-04T09:10:27.923Z,12.85
2023-02-04T09:11:29.424Z,12.87
2023-02-04T09:12:30.936Z,12.88
2023-02-04T09:13:32.836Z,12.88
2023-02-04T09:14:34.374Z,12.90
2023-02-04T09:15:35.836Z,12.87
2023-02-04T09:16:37.305Z,12.88
2023-02-04T09:17:39.051Z,12.90
2023-02-04T09:18:40.743Z,12.90
2023-02-04T09:19:42.257Z,12.91
2023-02-04T09:20:44.171Z,12.92
2023-02-04T09:21:45.653Z,12.93
2023-02-04T09:22:48.162Z,12.95
2023-02-04T09:23:49.737Z,12.95
2023-02-04T09:24:51.182Z,12.97
2023-02-04T09:25:52.640Z,12.99
2023-02-04T09:26:54.185Z,13.00
2023-02-04T09:27:55.711Z,13.01
2023-02-04T09:28:57.222Z,13.02
2023-02-04T09:29:58.739Z,13.03
2023-02-04T09:31:00.884Z,13.03
2023-02-04T09:32:03.134Z,13.04
2023-02-04T09:33:04.635Z,13.05
2023-02-04T09:34:06.279Z,13.05
2023-02-04T09:35:07.875Z,13.04
2023-02-04T09:36:10.050Z,13.05
2023-02-04T09:37:11.602Z,13.04
2023-02-04T09:38:13.124Z,13.05
2023-02-04T09:39:14.629Z,13.07
2023-02-04T09:40:17.378Z,13.07
2023-02-04T09:41:18.828Z,13.09
2023-02-04T09:42:20.309Z,13.08
2023-02-04T09:43:22.903Z,13.09
2023-02-04T09:44:24.911Z,13.09
2023-02-04T09:45:28.095Z,13.09
2023-02-04T09:46:30.104Z,13.08
2023-02-04T09:47:31.560Z,13.08
2023-02-04T09:48:33.092Z,13.09
2023-02-04T09:49:34.608Z,13.12
2023-02-04T09:50:36.212Z,13.14
2023-02-04T09:51:37.712Z,13.16
2023-02-04T09:52:39.399Z,13.17
2023-02-04T09:53:40.902Z,13.19
2023-02-04T09:54:42.459Z,13.19
2023-02-04T09:55:44.506Z,13.22
2023-02-04T09:56:46.124Z,13.21
2023-02-04T09:57:47.665Z,13.24
2023-02-04T09:58:49.163Z,13.25
2023-02-04T09:59:50.674Z,13.24
2023-02-04T10:00:52.953Z,13.25
2023-02-04T10:02:00.907Z,13.26
2023-02-04T10:03:02.382Z,13.27
2023-02-04T10:04:04.103Z,13.28
2023-02-04T10:05:06.442Z,13.28
2023-02-04T10:06:08.641Z,13.25
2023-02-04T10:07:11.378Z,13.28
2023-02-04T10:08:14.481Z,13.29
2023-02-04T10:09:16.067Z,13.29
2023-02-04T10:10:18.665Z,13.29
2023-02-04T10:11:20.649Z,13.22
2023-02-04T10:12:22.230Z,13.36
2023-02-04T10:13:34.586Z,13.41
2023-02-04T10:14:36.089Z,13.46
2023-02-04T10:15:37.946Z,13.50
2023-02-04T10:16:42.197Z,13.58
2023-02-04T10:17:43.818Z,13.64
2023-02-04T10:18:45.308Z,13.64
2023-02-04T10:19:46.789Z,13.71
2023-02-04T10:20:48.308Z,13.76
2023-02-04T10:21:49.777Z,13.79
2023-02-04T10:22:51.765Z,13.75
2023-02-04T10:23:54.175Z,13.88
2023-02-04T10:24:55.749Z,13.89
2023-02-04T10:25:57.275Z,13.88
2023-02-04T10:27:08.928Z,13.91
2023-02-04T10:28:10.521Z,13.95
2023-02-04T10:29:16.433Z,13.96
2023-02-04T10:30:21.002Z,13.99
2023-02-04T10:31:35.952Z,14.02
2023-02-04T10:32:37.685Z,14.06
2023-02-04T10:33:39.797Z,14.10
2023-02-04T10:34:41.239Z,14.11
2023-02-04T10:35:50.079Z,14.11
2023-02-04T10:36:55.774Z,14.14
2023-02-04T10:38:03.991Z,14.15
2023-02-04T10:39:06.749Z,14.14
2023-02-04T10:40:26.853Z,14.16
2023-02-04T10:41:28.491Z,14.17
2023-02-04T10:42:30.188Z,14.18
2023-02-04T10:43:31.683Z,14.22
2023-02-04T10:44:33.853Z,14.23
2023-02-04T10:45:35.386Z,14.24
2023-02-04T10:46:36.823Z,14.25
2023-02-04T10:47:38.401Z,14.28
2023-02-04T10:48:42.890Z,14.30
2023-02-04T10:49:57.781Z,14.34
2023-02-04T10:50:59.347Z,14.36
2023-02-04T10:52:00.844Z,14.38
2023-02-04T10:53:21.003Z,14.40
2023-02-04T10:54:32.403Z,14.42
2023-02-04T10:55:33.854Z,14.45
2023-02-04T10:56:35.338Z,14.46
2023-02-04T10:57:38.416Z,14.48
2023-02-04T10:58:39.982Z,14.48
2023-02-04T10:59:41.426Z,14.49
2023-02-04T11:00:42.937Z,14.50
2023-02-04T11:01:44.401Z,14.51
2023-02-04T11:02:56.781Z,14.49
2023-02-04T11:03:58.342Z,14.46
2023-02-04T11:05:00.100Z,14.48
2023-02-04T11:06:01.609Z,14.46
2023-02-04T11:07:03.405Z,14.48
2023-02-04T11:08:18.455Z,14.53
2023-02-04T11:09:19.951Z,14.58
2023-02-04T11:10:22.067Z,14.67
2023-02-04T11:11:24.477Z,14.79
2023-02-04T11:12:40.635Z,14.83
2023-02-04T11:13:43.048Z,14.81
2023-02-04T11:14:44.525Z,14.88
2023-02-04T11:15:49.847Z,14.91
2023-02-04T11:16:52.249Z,15.01
2023-02-04T11:18:03.210Z,15.11
2023-02-04T11:19:05.715Z,15.21
2023-02-04T11:20:13.910Z,15.32
2023-02-04T11:21:25.249Z,15.40
2023-02-04T11:22:45.620Z,15.49
2023-02-04T11:23:47.531Z,15.62
2023-02-04T11:24:49.125Z,15.69
2023-02-04T11:25:50.688Z,15.73
2023-02-04T11:26:52.982Z,15.73
2023-02-04T11:27:54.484Z,15.68
2023-02-04T11:28:58.746Z,15.65
2023-02-04T11:30:07.554Z,15.66
2023-02-04T11:31:21.356Z,15.64
2023-02-04T11:32:30.531Z,15.64
2023-02-04T11:33:38.777Z,15.65
2023-02-04T11:34:47.095Z,15.65
2023-02-04T11:35:57.706Z,15.64
2023-02-04T11:37:02.092Z,15.63
2023-02-04T11:38:03.601Z,15.66
2023-02-04T11:39:08.632Z,15.69
2023-02-04T11:40:22.150Z,15.73
2023-02-04T11:41:29.862Z,15.67
2023-02-04T11:42:41.700Z,15.66
2023-02-04T11:43:43.149Z,15.66
2023-02-04T11:44:54.393Z,15.61
2023-02-04T11:46:10.093Z,15.59
2023-02-04T11:47:13.238Z,15.62
2023-02-04T11:48:18.158Z,15.63
2023-02-04T11:49:19.837Z,15.59
2023-02-04T11:50:23.576Z,15.62
2023-02-04T11:51:33.899Z,15.59
2023-02-04T11:52:35.866Z,15.55
2023-02-04T11:53:37.367Z,15.59
2023-02-04T11:54:38.899Z,15.62
2023-02-04T11:55:44.860Z,15.64
2023-02-04T11:56:47.437Z,15.64
2023-02-04T11:57:52.058Z,15.62
2023-02-04T11:58:55.493Z,15.64
2023-02-04T11:59:56.994Z,15.64
2023-02-04T12:00:58.613Z,15.63
2023-02-04T12:02:06.621Z,15.63
2023-02-04T12:03:20.553Z,15.60
2023-02-04T12:04:23.024Z,15.58
2023-02-04T12:05:35.344Z,15.55
2023-02-04T12:06:36.881Z,15.50
2023-02-04T12:07:38.433Z,15.43
2023-02-04T12:08:39.920Z,15.44
2023-02-04T12:09:46.772Z,15.44
2023-02-04T12:10:49.208Z,15.42
2023-02-04T12:11:53.703Z,15.40
2023-02-04T12:12:57.843Z,15.36
2023-02-04T12:14:05.885Z,15.36
2023-02-04T12:15:29.502Z,15.36
2023-02-04T12:16:30.961Z,15.37
2023-02-04T12:17:32.437Z,15.39
2023-02-04T12:18:34.372Z,15.39
2023-02-04T12:19:36.051Z,15.37
2023-02-04T12:20:37.532Z,15.33
2023-02-04T12:21:39.320Z,15.33
2023-02-04T12:22:40.800Z,15.33
2023-02-04T12:23:45.249Z,15.34
2023-02-04T12:24:46.856Z,15.33
2023-02-04T12:25:49.123Z,15.34
2023-02-04T12:26:51.676Z,15.32
2023-02-04T12:27:55.527Z,15.32
2023-02-04T12:28:57.478Z,15.22
2023-02-04T12:29:59.002Z,15.29
2023-02-04T12:31:00.608Z,15.29
2023-02-04T12:32:02.288Z,15.28
2023-02-04T12:33:03.843Z,15.28
2023-02-04T12:34:05.337Z,15.28
2023-02-04T12:35:06.932Z,15.32
2023-02-04T12:36:08.592Z,15.32
2023-02-04T12:37:10.083Z,15.34
2023-02-04T12:38:11.657Z,15.37
2023-02-04T12:39:13.146Z,15.39
2023-02-04T12:40:15.984Z,15.39
2023-02-04T12:41:18.809Z,15.40
2023-02-04T12:42:20.312Z,15.39
2023-02-04T12:43:21.806Z,15.43
2023-02-04T12:44:23.269Z,15.43
2023-02-04T12:45:24.766Z,15.46
2023-02-04T12:46:26.254Z,15.45
2023-02-04T12:47:27.797Z,15.44
2023-02-04T12:48:29.314Z,15.41
2023-02-04T12:49:30.884Z,15.37
2023-02-04T12:50:32.384Z,15.38
2023-02-04T12:51:33.862Z,15.37
2023-02-04T12:52:36.901Z,15.38
2023-02-04T12:53:38.419Z,15.31
2023-02-04T12:54:39.933Z,15.30
2023-02-04T12:55:41.464Z,15.31
2023-02-04T12:56:42.924Z,15.28
2023-02-04T12:57:44.413Z,15.28
2023-02-04T12:58:45.993Z,15.25
2023-02-04T12:59:47.632Z,15.23
2023-02-04T13:00:49.186Z,15.23
2023-02-04T13:01:50.709Z,15.23
2023-02-04T13:02:52.264Z,15.23
2023-02-04T13:03:53.712Z,15.21
2023-02-04T13:04:55.200Z,15.18
2023-02-04T13:05:57.164Z,15.15
2023-02-04T13:06:58.679Z,15.11
2023-02-04T13:08:00.210Z,15.11
2023-02-04T13:09:01.734Z,15.10
2023-02-04T13:10:03.629Z,15.08
2023-02-04T13:11:05.169Z,15.05
2023-02-04T13:12:06.664Z,15.05
2023-02-04T13:13:08.125Z,15.04
2023-02-04T13:14:09.602Z,15.03
2023-02-04T13:15:11.162Z,15.04
2023-02-04T13:16:12.801Z,15.06
2023-02-04T13:17:14.340Z,14.97
2023-02-04T13:18:17.449Z,15.08
2023-02-04T13:19:19.069Z,15.08
2023-02-04T13:20:20.552Z,15.11
2023-02-04T13:21:22.072Z,15.11
2023-02-04T13:22:23.532Z,15.08